createdAt,value
2023-04-17T00:00:30.785Z,12.80
2023-04-17T00:02:58.484Z,12.40
2023-04-17T00:05:26.489Z,13.17
2023-04-17T00:07:54.276Z,13.20
2023-04-17T00:10:21.968Z,14.67
2023-04-17T00:12:49.416Z,14.70
2023-04-17T00:15:18.344Z,14.47
2023-04-17T00:17:45.907Z,14.70
2023-04-17T00:20:13.618Z,14.27
2023-04-17T00:22:41.154Z,15.07
2023-04-17T00:25:12.731Z,14.33
2023-04-17T00:27:40.325Z,15.90
2023-04-17T00:30:08.941Z,15.63
2023-04-17T00:32:37.864Z,14.37
2023-04-17T00:35:06.028Z,16.00
2023-04-17T00:37:33.483Z,16.00
2023-04-17T00:40:00.946Z,14.87
2023-04-17T00:42:28.684Z,14.87
2023-04-17T00:44:56.605Z,15.50
2023-04-17T00:47:26.206Z,16.60
2023-04-17T00:49:55.047Z,15.40
2023-04-17T00:52:29.293Z,16.77
2023-04-17T00:54:56.919Z,15.63
2023-04-17T00:57:25.096Z,15.67
2023-04-17T00:59:52.650Z,14.90
2023-04-17T01:02:20.276Z,14.60
2023-04-17T01:04:47.806Z,15.27
2023-04-17T01:07:16.735Z,16.13
2023-04-17T01:09:44.272Z,14.50
2023-04-17T01:12:19.435Z,14.97
2023-04-17T01:14:47.076Z,16.83
2023-04-17T01:17:15.218Z,16.27
2023-04-17T01:19:43.094Z,16.40
2023-04-17T01:22:10.659Z,15.40
2023-04-17T01:24:39.507Z,15.37
2023-04-17T01:27:07.682Z,14.80
2023-04-17T01:29:35.357Z,14.90
2023-04-17T01:32:02.979Z,15.60
2023-04-17T01:34:30.435Z,15.20
2023-04-17T01:36:57.907Z,16.17
2023-04-17T01:39:25.438Z,15.20
2023-04-17T01:41:54.327Z,15.73
2023-04-17T01:44:22.082Z,16.37
2023-04-17T01:46:49.517Z,15.03
2023-04-17T01:49:17.101Z,15.70
2023-04-17T01:51:44.561Z,15.50
2023-04-17T01:54:12.050Z,15.50
2023-04-17T01:56:39.488Z,14.63
2023-04-17T01:59:08.343Z,14.53
2023-04-17T02:01:36.729Z,14.97
2023-04-17T02:04:04.658Z,16.20
2023-04-17T02:06:32.560Z,14.90
2023-04-17T02:09:00.185Z,13.93
2023-04-17T02:11:27.627Z,14.70
2023-04-17T02:13:55.093Z,15.20
2023-04-17T02:16:24.059Z,14.83
2023-04-17T02:18:52.268Z,14.13
2023-04-17T02:21:19.730Z,17.00
2023-04-17T02:23:47.238Z,15.90
2023-04-17T02:26:15.020Z,15.27
2023-04-17T02:28:44.755Z,15.10
2023-04-17T02:31:12.945Z,15.43
2023-04-17T02:33:41.925Z,17.77
2023-04-17T02:36:10.052Z,16.43
2023-04-17T02:38:37.730Z,15.70
2023-04-17T02:41:05.982Z,17.23
2023-04-17T02:43:33.503Z,16.30
2023-04-17T02:46:01.355Z,17.20
2023-04-17T02:48:28.930Z,17.23
2023-04-17T02:50:57.775Z,17.50
2023-04-17T02:53:25.215Z,17.47
2023-04-17T02:55:52.673Z,16.73
2023-04-17T02:58:20.122Z,17.97
2023-04-17T03:00:47.755Z,18.77
2023-04-17T03:03:15.558Z,16.60
2023-04-17T03:05:43.178Z,18.30
2023-04-17T03:08:11.981Z,17.10
2023-04-17T03:10:39.454Z,17.07
2023-04-17T03:13:06.879Z,17.17
2023-04-17T03:15:35.089Z,16.07
2023-04-17T03:18:02.636Z,19.07
2023-04-17T03:20:30.202Z,17.30
2023-04-17T03:22:57.629Z,17.30
2023-04-17T03:25:26.447Z,17.40
2023-04-17T03:27:53.915Z,19.10
2023-04-17T03:30:21.418Z,17.10
2023-04-17T03:32:48.967Z,19.07
2023-04-17T03:35:16.534Z,17.43
2023-04-17T03:37:44.094Z,18.10
2023-04-17T03:40:11.959Z,18.80
2023-04-17T03:42:40.764Z,19.20
2023-04-17T03:45:09.746Z,18.20
2023-04-17T03:47:37.212Z,18.33
2023-04-17T03:50:05.318Z,18.13
2023-04-17T03:52:32.750Z,17.63
2023-04-17T03:55:00.241Z,18.97
2023-04-17T03:57:27.716Z,18.33
2023-04-17T03:59:56.498Z,19.80
2023-04-17T04:02:24.162Z,19.47
2023-04-17T04:04:51.886Z,18.33
2023-04-17T04:07:19.388Z,17.90
2023-04-17T04:09:46.858Z,17.53
2023-04-17T04:12:14.340Z,16.70
2023-04-17T04:14:42.214Z,19.30
2023-04-17T04:17:11.256Z,17.87
2023-04-17T04:19:38.718Z,18.97
2023-04-17T04:22:06.951Z,18.40
2023-04-17T04:24:35.198Z,19.00
2023-04-17T04:27:05.063Z,18.23
2023-04-17T04:29:32.924Z,18.73
2023-04-17T04:32:01.083Z,17.60
2023-04-17T04:38:15.419Z,17.30
2023-04-17T04:40:43.904Z,17.60
2023-04-17T04:43:11.374Z,19.53
2023-04-17T04:45:38.896Z,18.67
2023-04-17T04:48:06.373Z,18.83
2023-04-17T04:50:33.828Z,19.13
2023-04-17T04:53:01.485Z,17.23
2023-04-17T04:55:30.540Z,18.60
2023-04-17T04:57:58.146Z,19.17
2023-04-17T05:00:26.266Z,19.40
2023-04-17T05:02:53.792Z,19.60
2023-04-17T05:05:21.826Z,19.30
2023-04-17T05:07:49.309Z,19.00
2023-04-17T05:10:17.068Z,19.40
2023-04-17T05:12:45.852Z,18.27
2023-04-17T05:15:13.518Z,18.00
2023-04-17T05:17:41.857Z,19.80
2023-04-17T05:20:12.098Z,18.60
2023-04-17T05:22:39.571Z,19.57
2023-04-17T05:25:07.673Z,18.77
2023-04-17T05:27:35.253Z,19.50
2023-04-17T05:30:04.166Z,17.30
2023-04-17T05:32:31.726Z,17.77
2023-04-17T05:34:59.227Z,16.33
2023-04-17T05:37:26.695Z,16.07
2023-04-17T05:39:54.123Z,19.33
2023-04-17T05:42:21.586Z,19.00
2023-04-17T05:44:49.125Z,20.73
2023-04-17T05:47:17.927Z,17.57
2023-04-17T05:49:45.616Z,19.30
2023-04-17T05:52:13.052Z,20.33
2023-04-17T05:54:40.535Z,18.43
2023-04-17T05:57:08.010Z,23.20
2023-04-17T05:59:36.377Z,21.67
2023-04-17T06:02:04.778Z,21.70
2023-04-17T06:04:33.989Z,21.43
2023-04-17T06:07:03.054Z,21.73
2023-04-17T06:09:30.502Z,21.73
2023-04-17T06:11:59.011Z,20.47
2023-04-17T06:14:26.462Z,18.93
2023-04-17T06:16:53.934Z,19.03
2023-04-17T06:19:22.267Z,18.53
2023-04-17T06:21:51.168Z,18.70
2023-04-17T06:24:18.953Z,18.07
2023-04-17T06:26:46.495Z,16.30
2023-04-17T06:29:15.878Z,17.83
2023-04-17T06:31:45.313Z,18.87
2023-04-17T06:34:12.811Z,17.90
2023-04-17T06:36:41.033Z,16.20
2023-04-17T06:39:09.938Z,16.00
2023-04-17T06:41:37.549Z,15.30
2023-04-17T06:44:05.096Z,15.43
2023-04-17T06:46:32.693Z,16.90
2023-04-17T06:49:00.171Z,16.70
2023-04-17T06:51:29.093Z,16.30
2023-04-17T06:53:56.524Z,16.73
2023-04-17T06:56:25.343Z,15.07
2023-04-17T06:58:53.244Z,15.20
2023-04-17T07:01:21.160Z,16.10
2023-04-17T07:03:49.101Z,15.20
2023-04-17T07:06:17.005Z,15.27
2023-04-17T07:08:44.426Z,14.60
2023-04-17T07:11:11.904Z,14.50
2023-04-17T07:13:40.691Z,13.90
2023-04-17T07:16:08.760Z,14.33
2023-04-17T07:18:36.226Z,13.77
2023-04-17T07:21:03.729Z,15.30
2023-04-17T07:23:31.302Z,15.80
2023-04-17T07:25:58.766Z,14.73
2023-04-17T07:28:26.371Z,14.97
2023-04-17T07:30:58.063Z,15.33
2023-04-17T07:33:25.551Z,15.40
2023-04-17T07:35:53.796Z,15.10
2023-04-17T07:38:21.257Z,15.73
2023-04-17T07:40:48.725Z,15.53
2023-04-17T07:43:16.640Z,15.10
2023-04-17T07:45:44.089Z,15.10
2023-04-17T07:48:12.872Z,16.97
2023-04-17T07:50:40.348Z,14.00
2023-04-17T07:53:08.246Z,15.10
2023-04-17T07:55:35.715Z,13.93
2023-04-17T07:58:03.678Z,13.50
2023-04-17T08:00:31.380Z,13.70
2023-04-17T08:02:59.240Z,13.23
2023-04-17T08:05:28.269Z,14.77
2023-04-17T08:07:55.759Z,14.13
2023-04-17T08:10:23.358Z,14.07
2023-04-17T08:12:51.062Z,13.00
2023-04-17T08:15:18.680Z,13.23
2023-04-17T08:17:46.175Z,14.60
2023-04-17T08:20:14.155Z,14.67
2023-04-17T08:22:44.587Z,12.33
2023-04-17T08:25:13.213Z,14.07
2023-04-17T08:27:41.818Z,15.70
2023-04-17T08:30:13.039Z,13.83
2023-04-17T08:32:43.690Z,12.93
2023-04-17T08:35:12.307Z,13.17
2023-04-17T08:37:40.519Z,14.47
2023-04-17T08:40:12.080Z,12.63
2023-04-17T08:42:41.547Z,12.67
2023-04-17T08:45:11.453Z,12.90
2023-04-17T08:47:39.749Z,12.97
2023-04-17T08:50:09.575Z,12.27
2023-04-17T08:52:40.529Z,12.03
2023-04-17T08:55:10.599Z,12.63
2023-04-17T08:57:54.237Z,13.63
2023-04-17T09:00:25.588Z,11.87
2023-04-17T09:02:54.921Z,11.27
2023-04-17T09:05:23.358Z,13.27
2023-04-17T09:07:51.915Z,13.10
2023-04-17T09:10:20.925Z,12.73
2023-04-17T09:13:00.973Z,12.87
2023-04-17T09:15:28.583Z,12.87
2023-04-17T09:17:56.264Z,12.90
2023-04-17T09:20:23.956Z,13.07
2023-04-17T09:22:59.969Z,13.30
2023-04-17T09:25:29.083Z,14.10
2023-04-17T09:28:04.202Z,13.10
2023-04-17T09:30:37.707Z,14.10
2023-04-17T09:33:06.354Z,13.80
2023-04-17T09:35:39.238Z,12.47
2023-04-17T09:38:07.495Z,12.70
2023-04-17T09:40:40.794Z,12.00
2023-04-17T09:43:10.386Z,14.03
2023-04-17T09:45:42.474Z,11.57
2023-04-17T09:48:11.504Z,13.80
2023-04-17T09:50:39.498Z,12.30
2023-04-17T09:53:08.365Z,12.20
2023-04-17T09:55:37.802Z,12.47
2023-04-17T09:58:08.340Z,11.80
2023-04-17T10:00:37.749Z,10.87
2023-04-17T10:03:05.816Z,9.37
2023-04-17T10:05:33.593Z,10.00
2023-04-17T10:08:01.418Z,9.40
2023-04-17T10:10:31.295Z,8.57
2023-04-17T10:13:01.214Z,9.30
2023-04-17T10:15:30.773Z,8.90
2023-04-17T10:18:20.202Z,9.50
2023-04-17T10:20:48.461Z,8.87
2023-04-17T10:23:27.866Z,8.17
2023-04-17T10:26:40.335Z,7.03
2023-04-17T10:29:07.827Z,6.20
2023-04-17T10:32:17.859Z,6.83
2023-04-17T10:34:46.273Z,6.53
2023-04-17T10:37:15.424Z,6.17
2023-04-17T10:39:51.480Z,5.73
2023-04-17T10:42:20.147Z,6.33
2023-04-17T10:44:48.440Z,5.37
2023-04-17T10:47:20.889Z,6.10
2023-04-17T10:49:50.533Z,5.60
2023-04-17T10:52:51.196Z,5.73
2023-04-17T10:55:22.086Z,5.90
2023-04-17T10:58:00.638Z,5.67
2023-04-17T11:00:33.591Z,5.07
2023-04-17T11:03:03.495Z,6.03
2023-04-17T11:05:32.235Z,6.07
2023-04-17T11:07:59.949Z,6.23
2023-04-17T11:10:27.661Z,6.57
2023-04-17T11:12:56.710Z,6.17
2023-04-17T11:15:33.133Z,6.13
2023-04-17T11:18:03.053Z,6.07
2023-04-17T11:20:33.207Z,6.50
2023-04-17T11:23:05.056Z,5.00
2023-04-17T11:25:35.004Z,5.10
2023-04-17T11:28:04.133Z,4.97
2023-04-17T11:30:33.123Z,5.40
2023-04-17T11:33:02.959Z,6.10
2023-04-17T11:35:32.457Z,5.87
2023-04-17T11:38:14.290Z,4.27
2023-04-17T11:40:46.054Z,4.80
2023-04-17T11:43:14.228Z,3.87
2023-04-17T11:45:43.699Z,4.80
2023-04-17T11:48:13.850Z,4.00
2023-04-17T11:50:42.449Z,3.97
2023-04-17T11:53:10.018Z,3.10
2023-04-17T11:55:37.470Z,3.57
2023-04-17T11:58:07.684Z,3.10
2023-04-17T12:00:37.456Z,2.90
2023-04-17T12:03:36.027Z,4.83
2023-04-17T12:06:06.257Z,2.70
2023-04-17T12:08:43.479Z,3.43
2023-04-17T12:11:18.295Z,3.80
2023-04-17T12:13:46.040Z,3.10
2023-04-17T12:16:13.502Z,3.47
2023-04-17T12:18:42.358Z,3.53
2023-04-17T12:21:09.799Z,3.00
2023-04-17T12:23:37.274Z,3.90
2023-04-17T12:26:04.868Z,3.23
2023-04-17T12:28:32.371Z,2.73
2023-04-17T12:30:59.803Z,2.83
2023-04-17T12:33:27.243Z,3.47
2023-04-17T12:35:56.053Z,2.70
2023-04-17T12:38:24.147Z,3.03
2023-04-17T12:40:51.588Z,3.00
2023-04-17T12:43:19.084Z,3.10
2023-04-17T12:45:46.956Z,3.30
2023-04-17T12:48:15.310Z,2.90
2023-04-17T12:50:43.766Z,3.43
2023-04-17T12:53:13.895Z,3.20
2023-04-17T12:55:43.489Z,2.70
2023-04-17T12:58:12.044Z,3.40
2023-04-17T13:00:40.803Z,2.70
2023-04-17T13:03:08.600Z,2.77
2023-04-17T13:05:36.558Z,3.00
2023-04-17T13:08:04.019Z,3.20
2023-04-17T13:10:34.192Z,3.00
2023-04-17T13:13:02.193Z,3.27
2023-04-17T13:15:29.673Z,2.97
2023-04-17T13:17:57.166Z,2.87
2023-04-17T13:20:24.748Z,3.10
2023-04-17T13:22:52.223Z,3.13
2023-04-17T13:25:19.716Z,3.90
2023-04-17T13:27:48.581Z,3.40
2023-04-17T13:30:16.309Z,3.20
2023-04-17T13:32:43.904Z,2.80
2023-04-17T13:35:13.317Z,2.97
2023-04-17T13:37:41.208Z,4.40
2023-04-17T13:40:10.652Z,3.27
2023-04-17T13:42:38.242Z,3.67
2023-04-17T13:45:08.677Z,3.90
2023-04-17T13:47:36.240Z,3.50
2023-04-17T13:50:03.908Z,3.27
2023-04-17T13:52:31.355Z,4.33
2023-04-17T13:54:58.790Z,3.23
2023-04-17T13:57:26.253Z,3.40
2023-04-17T13:59:53.760Z,2.97
2023-04-17T14:02:22.862Z,3.23
2023-04-17T14:04:50.796Z,4.50
2023-04-17T14:07:18.310Z,2.70
2023-04-17T14:09:45.780Z,3.00
2023-04-17T14:12:16.667Z,2.87
2023-04-17T14:14:44.146Z,2.70
2023-04-17T14:17:11.631Z,3.03
2023-04-17T14:19:40.418Z,2.80
2023-04-17T14:22:07.876Z,3.40
2023-04-17T14:24:35.329Z,3.70
2023-04-17T14:27:02.939Z,2.87
2023-04-17T14:29:30.643Z,3.20
2023-04-17T14:31:58.206Z,2.73
2023-04-17T14:34:25.987Z,2.73
2023-04-17T14:36:57.448Z,3.10
2023-04-17T14:39:25.541Z,3.27
2023-04-17T14:41:53.264Z,2.53
2023-04-17T14:44:21.278Z,2.80
2023-04-17T14:46:48.943Z,3.10
2023-04-17T14:49:16.591Z,3.73
2023-04-17T14:51:44.084Z,2.70
2023-04-17T14:54:12.866Z,3.03
2023-04-17T14:56:40.604Z,3.60
2023-04-17T14:59:08.065Z,3.17
2023-04-17T15:01:35.599Z,2.93
2023-04-17T15:04:03.749Z,3.73
2023-04-17T15:06:31.413Z,3.30
2023-04-17T15:08:59.272Z,3.57
2023-04-17T15:11:28.096Z,3.20
2023-04-17T15:13:55.533Z,3.27
2023-04-17T15:16:23.033Z,3.17
2023-04-17T15:18:51.074Z,2.77
2023-04-17T15:21:18.675Z,3.70
2023-04-17T15:23:46.162Z,3.83
2023-04-17T15:26:14.139Z,3.03
2023-04-17T15:28:42.970Z,3.20
2023-04-17T15:31:10.481Z,5.37
2023-04-17T15:33:38.427Z,4.03
2023-04-17T15:36:05.978Z,4.10
2023-04-17T15:38:33.442Z,3.80
2023-04-17T15:41:00.990Z,3.70
2023-04-17T15:43:28.494Z,3.93
2023-04-17T15:45:58.897Z,4.97
2023-04-17T15:48:27.472Z,6.47
2023-04-17T15:50:55.071Z,3.90
2023-04-17T15:53:22.647Z,4.73
2023-04-17T15:55:50.139Z,4.50
2023-04-17T15:58:17.616Z,3.70
2023-04-17T16:00:45.183Z,3.07
2023-04-17T16:03:14.514Z,3.13
2023-04-17T16:05:42.243Z,4.43
2023-04-17T16:08:09.716Z,3.87
2023-04-17T16:10:37.614Z,3.40
2023-04-17T16:13:05.118Z,4.40
2023-04-17T16:15:32.577Z,3.47
2023-04-17T16:18:00.150Z,3.60
2023-04-17T16:20:29.071Z,4.37
2023-04-17T16:22:56.504Z,4.23
2023-04-17T16:25:24.060Z,3.70
2023-04-17T16:27:51.542Z,3.97
2023-04-17T16:30:19.119Z,3.80
2023-04-17T16:32:48.615Z,3.33
2023-04-17T16:35:16.166Z,3.60
2023-04-17T16:37:44.971Z,3.70
2023-04-17T16:40:12.966Z,4.10
2023-04-17T16:42:41.722Z,4.40
2023-04-17T16:45:09.825Z,3.43
2023-04-17T16:47:38.709Z,4.07
2023-04-17T16:50:09.808Z,3.57
2023-04-17T16:52:40.069Z,3.70
2023-04-17T16:55:10.079Z,3.60
2023-04-17T16:57:38.217Z,4.33
2023-04-17T17:00:07.611Z,4.07
2023-04-17T17:02:35.447Z,3.60
2023-04-17T17:05:02.994Z,3.50
2023-04-17T17:07:30.611Z,4.00
2023-04-17T17:09:58.130Z,3.60
2023-04-17T17:12:27.172Z,3.60
2023-04-17T17:14:54.892Z,3.83
2023-04-17T17:17:22.487Z,3.10
2023-04-17T17:19:50.046Z,3.70
2023-04-17T17:22:17.520Z,4.73
2023-04-17T17:24:44.956Z,3.80
2023-04-17T17:27:12.929Z,4.37
2023-04-17T17:29:41.870Z,3.60
2023-04-17T17:32:09.836Z,4.10
2023-04-17T17:34:37.323Z,4.27
2023-04-17T17:37:04.806Z,4.10
2023-04-17T17:39:32.259Z,4.00
2023-04-17T17:42:02.818Z,5.67
2023-04-17T17:44:30.352Z,4.30
2023-04-17T17:46:59.156Z,4.20
2023-04-17T17:49:26.703Z,4.33
2023-04-17T17:51:54.209Z,4.23
2023-04-17T17:54:59.857Z,4.53
2023-04-17T17:57:33.002Z,5.43
2023-04-17T18:00:11.200Z,5.47
2023-04-17T18:02:40.226Z,5.07
2023-04-17T18:05:08.225Z,4.63
2023-04-17T18:07:35.817Z,4.53
2023-04-17T18:10:03.528Z,4.73
2023-04-17T18:12:31.033Z,4.23
2023-04-17T18:15:00.987Z,4.23
2023-04-17T18:17:28.550Z,5.00
2023-04-17T18:19:57.465Z,3.83
2023-04-17T18:22:25.010Z,6.47
2023-04-17T18:24:53.915Z,4.57
2023-04-17T18:27:21.657Z,6.60
2023-04-17T18:29:49.463Z,6.20
2023-04-17T18:32:17.037Z,6.30
2023-04-17T18:34:48.907Z,5.83
2023-04-17T18:37:18.332Z,5.67
2023-04-17T18:39:45.996Z,6.30
2023-04-17T18:42:13.573Z,5.07
2023-04-17T18:44:41.728Z,5.40
2023-04-17T18:47:09.254Z,5.50
2023-04-17T18:49:36.917Z,6.40
2023-04-17T18:52:05.436Z,5.70
2023-04-17T18:54:34.337Z,9.13
2023-04-17T18:57:01.832Z,8.93
2023-04-17T18:59:30.113Z,11.30
2023-04-17T19:01:57.726Z,8.67
2023-04-17T19:04:25.942Z,7.13
2023-04-17T19:06:53.501Z,5.83
2023-04-17T19:09:21.104Z,6.03
2023-04-17T19:11:50.236Z,5.73
2023-04-17T19:14:17.720Z,5.93
2023-04-17T19:16:47.137Z,7.00
2023-04-17T19:19:15.480Z,6.90
2023-04-17T19:21:43.158Z,5.87
2023-04-17T19:24:10.768Z,6.70
2023-04-17T19:26:38.785Z,5.63
2023-04-17T19:29:07.874Z,5.40
2023-04-17T19:31:35.543Z,5.80
2023-04-17T19:34:03.056Z,5.90
2023-04-17T19:36:30.525Z,5.00
2023-04-17T19:38:59.732Z,6.30
2023-04-17T19:41:28.613Z,6.13
2023-04-17T19:43:57.319Z,8.20
2023-04-17T19:46:27.391Z,9.57
2023-04-17T19:48:55.059Z,6.57
2023-04-17T19:51:22.653Z,5.77
2023-04-17T19:53:50.268Z,4.87
2023-04-17T19:56:17.759Z,4.30
2023-04-17T19:58:45.255Z,5.63
2023-04-17T20:01:12.789Z,5.63
2023-04-17T20:03:43.532Z,5.67
2023-04-17T20:06:11.190Z,5.47
2023-04-17T20:08:38.652Z,5.97
2023-04-17T20:11:11.742Z,5.53
2023-04-17T20:13:39.246Z,5.83
2023-04-17T20:16:07.280Z,5.23
2023-04-17T20:18:35.207Z,5.57
2023-04-17T20:21:05.747Z,5.33
2023-04-17T20:23:33.503Z,5.73
2023-04-17T20:26:00.943Z,5.47
2023-04-17T20:28:29.045Z,5.17
2023-04-17T20:30:56.745Z,5.37
2023-04-17T20:33:24.338Z,5.90
2023-04-17T20:35:51.822Z,6.80
2023-04-17T20:38:20.675Z,6.10
2023-04-17T20:40:48.196Z,6.40
2023-04-17T20:43:16.797Z,5.70
2023-04-17T20:45:44.576Z,4.73
2023-04-17T20:48:12.141Z,5.50
2023-04-17T20:50:39.668Z,7.03
2023-04-17T20:53:07.152Z,5.30
2023-04-17T20:55:37.288Z,5.13
2023-04-17T20:58:04.774Z,6.00
2023-04-17T21:00:32.394Z,6.97
2023-04-17T21:02:59.918Z,5.90
2023-04-17T21:05:27.520Z,5.87
2023-04-17T21:07:57.518Z,6.80
2023-04-17T21:10:25.028Z,6.13
2023-04-17T21:12:53.842Z,6.20
2023-04-17T21:15:21.443Z,6.23
2023-04-17T21:17:48.879Z,6.00
2023-04-17T21:20:16.412Z,6.67
2023-04-17T21:22:43.862Z,6.57
2023-04-17T21:25:11.312Z,6.00
2023-04-17T21:27:38.752Z,6.07
2023-04-17T21:30:10.509Z,5.00
2023-04-17T21:32:38.013Z,5.97
2023-04-17T21:35:06.224Z,6.40
2023-04-17T21:37:33.682Z,5.80
2023-04-17T21:40:01.153Z,6.20
2023-04-17T21:42:28.633Z,5.93
2023-04-17T21:44:56.190Z,5.90
2023-04-17T21:47:24.993Z,6.10
2023-04-17T21:49:52.493Z,6.00
2023-04-17T21:52:19.979Z,6.10
2023-04-17T21:54:47.447Z,6.30
2023-04-17T21:57:14.927Z,6.10
2023-04-17T21:59:42.365Z,6.63
2023-04-17T22:02:09.872Z,6.47
2023-04-17T22:04:38.686Z,5.93
2023-04-17T22:07:08.451Z,5.83
2023-04-17T22:09:35.935Z,6.37
2023-04-17T22:12:11.471Z,6.37
2023-04-17T22:14:38.957Z,6.00
2023-04-17T22:17:06.435Z,7.20
2023-04-17T22:19:33.921Z,6.53
2023-04-17T22:22:02.692Z,5.50
2023-04-17T22:24:30.160Z,6.00
2023-04-17T22:26:57.635Z,6.10
2023-04-17T22:29:25.200Z,5.50
2023-04-17T22:31:52.684Z,6.80
2023-04-17T22:34:20.156Z,6.23
2023-04-17T22:36:47.579Z,6.83
2023-04-17T22:39:16.643Z,6.67
2023-04-17T22:41:44.087Z,5.93
2023-04-17T22:44:11.740Z,6.40
2023-04-17T22:46:39.426Z,6.10
2023-04-17T22:49:07.433Z,6.83
2023-04-17T22:51:34.874Z,6.30
2023-04-17T22:54:11.529Z,5.40
2023-04-17T22:56:44.165Z,5.87
2023-04-17T22:59:11.854Z,5.97
2023-04-17T23:01:39.541Z,6.37
2023-04-17T23:04:06.993Z,6.43
2023-04-17T23:06:34.409Z,6.70
2023-04-17T23:09:01.926Z,6.60
2023-04-17T23:11:31.948Z,6.83
2023-04-17T23:14:01.218Z,5.60
2023-04-17T23:16:31.459Z,6.90
2023-04-17T23:18:59.129Z,8.03
2023-04-17T23:21:26.625Z,7.43
2023-04-17T23:23:54.052Z,6.20
2023-04-17T23:26:21.492Z,7.03
2023-04-17T23:28:48.918Z,6.47
2023-04-17T23:31:17.744Z,7.17
2023-04-17T23:33:45.172Z,6.10
2023-04-17T23:36:13.133Z,6.60
2023-04-17T23:38:40.604Z,6.23
2023-04-17T23:41:08.092Z,5.53
2023-04-17T23:43:35.536Z,6.30
2023-04-17T23:46:02.991Z,7.03
2023-04-17T23:48:31.786Z,7.00
2023-04-17T23:50:59.318Z,7.80
2023-04-17T23:53:26.865Z,5.83
2023-04-17T23:55:54.377Z,5.70
2023-04-17T23:58:21.837Z,6.87
